sensor_id;sensor_type;location;lat;lon;timestamp;P1;durP1;ratioP1;P2;durP2;ratioP2
25123;SDS011;13104;51.030;4.686;2022-08-21T00:00:39;9.77;;;3.75;;
25123;SDS011;13104;51.030;4.686;2022-08-21T00:03:06;8.82;;;3.53;;
25123;SDS011;13104;51.030;4.686;2022-08-21T00:05:35;11.10;;;3.70;;
25123;SDS011;13104;51.030;4.686;2022-08-21T00:08:02;12.13;;;4.07;;
25123;SDS011;13104;51.030;4.686;2022-08-21T00:10:28;15.32;;;4.15;;
25123;SDS011;13104;51.030;4.686;2022-08-21T00:12:55;10.18;;;3.08;;
25123;SDS011;13104;51.030;4.686;2022-08-21T00:15:25;12.35;;;3.97;;
25123;SDS011;13104;51.030;4.686;2022-08-21T00:17:52;10.82;;;3.63;;
25123;SDS011;13104;51.030;4.686;2022-08-21T00:20:19;11.48;;;3.58;;
25123;SDS011;13104;51.030;4.686;2022-08-21T00:22:45;8.30;;;3.20;;
25123;SDS011;13104;51.030;4.686;2022-08-21T00:25:12;8.98;;;3.72;;
25123;SDS011;13104;51.030;4.686;2022-08-21T00:27:38;6.93;;;3.55;;
25123;SDS011;13104;51.030;4.686;2022-08-21T00:30:05;9.30;;;3.50;;
25123;SDS011;13104;51.030;4.686;2022-08-21T00:32:31;11.07;;;3.40;;
25123;SDS011;13104;51.030;4.686;2022-08-21T00:34:58;10.52;;;3.83;;
25123;SDS011;13104;51.030;4.686;2022-08-21T00:37:24;7.53;;;3.35;;
25123;SDS011;13104;51.030;4.686;2022-08-21T00:39:50;8.35;;;3.35;;
25123;SDS011;13104;51.030;4.686;2022-08-21T00:42:18;9.73;;;3.40;;
25123;SDS011;13104;51.030;4.686;2022-08-21T00:44:45;9.25;;;3.28;;
25123;SDS011;13104;51.030;4.686;2022-08-21T00:47:12;8.40;;;3.50;;
25123;SDS011;13104;51.030;4.686;2022-08-21T00:49:39;9.90;;;3.28;;
25123;SDS011;13104;51.030;4.686;2022-08-21T00:52:05;12.32;;;3.75;;
25123;SDS011;13104;51.030;4.686;2022-08-21T00:54:32;9.90;;;3.47;;
25123;SDS011;13104;51.030;4.686;2022-08-21T00:57:00;7.65;;;3.40;;
25123;SDS011;13104;51.030;4.686;2022-08-21T00:59:26;9.30;;;3.40;;
25123;SDS011;13104;51.030;4.686;2022-08-21T01:01:54;9.60;;;3.40;;
25123;SDS011;13104;51.030;4.686;2022-08-21T01:04:20;7.28;;;3.50;;
25123;SDS011;13104;51.030;4.686;2022-08-21T01:06:46;8.07;;;3.80;;
25123;SDS011;13104;51.030;4.686;2022-08-21T01:09:13;9.13;;;3.47;;
25123;SDS011;13104;51.030;4.686;2022-08-21T01:11:39;13.60;;;3.63;;
25123;SDS011;13104;51.030;4.686;2022-08-21T01:14:07;9.05;;;2.85;;
25123;SDS011;13104;51.030;4.686;2022-08-21T01:16:37;8.32;;;3.08;;
25123;SDS011;13104;51.030;4.686;2022-08-21T01:19:03;6.95;;;2.60;;
25123;SDS011;13104;51.030;4.686;2022-08-21T01:21:30;7.80;;;2.95;;
25123;SDS011;13104;51.030;4.686;2022-08-21T01:23:56;9.18;;;3.15;;
25123;SDS011;13104;51.030;4.686;2022-08-21T01:26:24;7.28;;;3.08;;
25123;SDS011;13104;51.030;4.686;2022-08-21T01:28:57;10.15;;;3.40;;
25123;SDS011;13104;51.030;4.686;2022-08-21T01:31:25;7.88;;;2.92;;
25123;SDS011;13104;51.030;4.686;2022-08-21T01:33:51;10.45;;;2.90;;
25123;SDS011;13104;51.030;4.686;2022-08-21T01:36:17;11.00;;;3.15;;
25123;SDS011;13104;51.030;4.686;2022-08-21T01:38:43;9.55;;;2.85;;
25123;SDS011;13104;51.030;4.686;2022-08-21T01:41:09;9.85;;;2.80;;
25123;SDS011;13104;51.030;4.686;2022-08-21T01:43:35;8.88;;;3.17;;
25123;SDS011;13104;51.030;4.686;2022-08-21T01:46:02;7.18;;;2.80;;
25123;SDS011;13104;51.030;4.686;2022-08-21T01:48:29;7.78;;;2.90;;
25123;SDS011;13104;51.030;4.686;2022-08-21T01:50:55;8.32;;;2.90;;
25123;SDS011;13104;51.030;4.686;2022-08-21T01:53:21;9.57;;;3.13;;
25123;SDS011;13104;51.030;4.686;2022-08-21T01:55:47;7.80;;;3.10;;
25123;SDS011;13104;51.030;4.686;2022-08-21T01:58:13;9.82;;;3.03;;
25123;SDS011;13104;51.030;4.686;2022-08-21T02:00:39;8.93;;;3.35;;
25123;SDS011;13104;51.030;4.686;2022-08-21T02:03:06;10.52;;;3.00;;
25123;SDS011;13104;51.030;4.686;2022-08-21T02:05:32;9.15;;;3.30;;
25123;SDS011;13104;51.030;4.686;2022-08-21T02:07:58;6.63;;;3.05;;
25123;SDS011;13104;51.030;4.686;2022-08-21T02:10:25;11.98;;;3.03;;
25123;SDS011;13104;51.030;4.686;2022-08-21T02:12:52;11.02;;;3.28;;
25123;SDS011;13104;51.030;4.686;2022-08-21T02:15:18;8.65;;;3.20;;
25123;SDS011;13104;51.030;4.686;2022-08-21T02:17:51;10.73;;;3.22;;
25123;SDS011;13104;51.030;4.686;2022-08-21T02:20:19;8.35;;;3.03;;
25123;SDS011;13104;51.030;4.686;2022-08-21T02:22:45;10.13;;;3.30;;
25123;SDS011;13104;51.030;4.686;2022-08-21T02:25:12;8.57;;;3.40;;
25123;SDS011;13104;51.030;4.686;2022-08-21T02:27:40;12.48;;;3.38;;
25123;SDS011;13104;51.030;4.686;2022-08-21T02:30:07;7.88;;;2.92;;
25123;SDS011;13104;51.030;4.686;2022-08-21T02:32:33;11.27;;;3.85;;
25123;SDS011;13104;51.030;4.686;2022-08-21T02:35:00;5.63;;;2.72;;
25123;SDS011;13104;51.030;4.686;2022-08-21T02:37:26;13.02;;;3.38;;
25123;SDS011;13104;51.030;4.686;2022-08-21T02:39:52;11.20;;;3.38;;
25123;SDS011;13104;51.030;4.686;2022-08-21T02:42:18;6.90;;;3.15;;
25123;SDS011;13104;51.030;4.686;2022-08-21T02:44:45;5.93;;;3.08;;
25123;SDS011;13104;51.030;4.686;2022-08-21T02:47:11;11.82;;;3.40;;
25123;SDS011;13104;51.030;4.686;2022-08-21T02:49:37;10.25;;;3.28;;
25123;SDS011;13104;51.030;4.686;2022-08-21T02:52:03;7.38;;;2.85;;
25123;SDS011;13104;51.030;4.686;2022-08-21T02:54:30;10.65;;;3.10;;
25123;SDS011;13104;51.030;4.686;2022-08-21T02:56:56;6.75;;;3.40;;
25123;SDS011;13104;51.030;4.686;2022-08-21T02:59:22;8.75;;;3.38;;
25123;SDS011;13104;51.030;4.686;2022-08-21T03:01:48;7.07;;;3.40;;
25123;SDS011;13104;51.030;4.686;2022-08-21T03:04:14;8.52;;;3.15;;
25123;SDS011;13104;51.030;4.686;2022-08-21T03:06:41;5.95;;;3.10;;
25123;SDS011;13104;51.030;4.686;2022-08-21T03:09:07;9.70;;;3.08;;
25123;SDS011;13104;51.030;4.686;2022-08-21T03:11:33;12.20;;;3.42;;
25123;SDS011;13104;51.030;4.686;2022-08-21T03:14:00;12.00;;;3.50;;
25123;SDS011;13104;51.030;4.686;2022-08-21T03:16:27;9.43;;;3.42;;
25123;SDS011;13104;51.030;4.686;2022-08-21T03:18:53;7.88;;;3.28;;
25123;SDS011;13104;51.030;4.686;2022-08-21T03:21:19;12.00;;;3.20;;
25123;SDS011;13104;51.030;4.686;2022-08-21T03:23:45;8.60;;;3.00;;
25123;SDS011;13104;51.030;4.686;2022-08-21T03:26:11;8.45;;;3.30;;
25123;SDS011;13104;51.030;4.686;2022-08-21T03:28:38;6.35;;;3.00;;
25123;SDS011;13104;51.030;4.686;2022-08-21T03:31:04;8.38;;;3.30;;
25123;SDS011;13104;51.030;4.686;2022-08-21T03:33:31;9.90;;;3.08;;
25123;SDS011;13104;51.030;4.686;2022-08-21T03:36:02;6.82;;;3.00;;
25123;SDS011;13104;51.030;4.686;2022-08-21T03:38:29;11.00;;;3.85;;
25123;SDS011;13104;51.030;4.686;2022-08-21T03:40:56;9.35;;;3.53;;
25123;SDS011;13104;51.030;4.686;2022-08-21T03:43:22;11.68;;;3.33;;
25123;SDS011;13104;51.030;4.686;2022-08-21T03:45:48;8.55;;;3.72;;
25123;SDS011;13104;51.030;4.686;2022-08-21T03:48:15;8.63;;;3.10;;
25123;SDS011;13104;51.030;4.686;2022-08-21T03:50:42;9.65;;;3.40;;
25123;SDS011;13104;51.030;4.686;2022-08-21T03:53:10;8.93;;;3.55;;
25123;SDS011;13104;51.030;4.686;2022-08-21T03:55:36;12.07;;;3.47;;
25123;SDS011;13104;51.030;4.686;2022-08-21T03:58:02;9.25;;;3.78;;
25123;SDS011;13104;51.030;4.686;2022-08-21T04:00:29;8.32;;;3.42;;
25123;SDS011;13104;51.030;4.686;2022-08-21T04:02:55;8.95;;;3.25;;
25123;SDS011;13104;51.030;4.686;2022-08-21T04:05:21;8.20;;;3.55;;
25123;SDS011;13104;51.030;4.686;2022-08-21T04:07:54;9.65;;;3.35;;
25123;SDS011;13104;51.030;4.686;2022-08-21T04:10:20;9.80;;;3.25;;
25123;SDS011;13104;51.030;4.686;2022-08-21T04:12:46;10.68;;;3.83;;
25123;SDS011;13104;51.030;4.686;2022-08-21T04:15:13;7.78;;;3.13;;
25123;SDS011;13104;51.030;4.686;2022-08-21T04:17:39;10.30;;;3.20;;
25123;SDS011;13104;51.030;4.686;2022-08-21T04:20:05;11.95;;;3.70;;
25123;SDS011;13104;51.030;4.686;2022-08-21T04:22:31;11.05;;;3.45;;
25123;SDS011;13104;51.030;4.686;2022-08-21T04:24:58;12.48;;;3.28;;
25123;SDS011;13104;51.030;4.686;2022-08-21T04:27:24;8.70;;;3.40;;
25123;SDS011;13104;51.030;4.686;2022-08-21T04:29:50;9.80;;;3.15;;
25123;SDS011;13104;51.030;4.686;2022-08-21T04:32:23;14.00;;;3.83;;
25123;SDS011;13104;51.030;4.686;2022-08-21T04:34:49;8.68;;;3.50;;
25123;SDS011;13104;51.030;4.686;2022-08-21T04:37:15;8.88;;;3.47;;
25123;SDS011;13104;51.030;4.686;2022-08-21T04:39:41;10.73;;;3.45;;
25123;SDS011;13104;51.030;4.686;2022-08-21T04:42:07;9.18;;;3.17;;
25123;SDS011;13104;51.030;4.686;2022-08-21T04:44:34;10.23;;;3.55;;
25123;SDS011;13104;51.030;4.686;2022-08-21T04:47:00;9.43;;;3.47;;
25123;SDS011;13104;51.030;4.686;2022-08-21T04:49:26;9.02;;;3.17;;
25123;SDS011;13104;51.030;4.686;2022-08-21T04:51:52;11.88;;;3.50;;
25123;SDS011;13104;51.030;4.686;2022-08-21T04:54:19;9.45;;;3.58;;
25123;SDS011;13104;51.030;4.686;2022-08-21T04:56:53;10.68;;;3.47;;
25123;SDS011;13104;51.030;4.686;2022-08-21T04:59:21;8.63;;;3.00;;
25123;SDS011;13104;51.030;4.686;2022-08-21T05:01:48;10.77;;;3.60;;
25123;SDS011;13104;51.030;4.686;2022-08-21T05:04:16;9.88;;;3.72;;
25123;SDS011;13104;51.030;4.686;2022-08-21T05:06:43;9.10;;;3.33;;
25123;SDS011;13104;51.030;4.686;2022-08-21T05:09:12;12.05;;;3.47;;
25123;SDS011;13104;51.030;4.686;2022-08-21T05:11:38;10.77;;;3.40;;
25123;SDS011;13104;51.030;4.686;2022-08-21T05:14:05;9.48;;;3.55;;
25123;SDS011;13104;51.030;4.686;2022-08-21T05:16:31;12.38;;;3.33;;
25123;SDS011;13104;51.030;4.686;2022-08-21T05:18:57;8.70;;;2.90;;
25123;SDS011;13104;51.030;4.686;2022-08-21T05:21:23;14.95;;;3.10;;
25123;SDS011;13104;51.030;4.686;2022-08-21T05:23:52;12.65;;;3.83;;
25123;SDS011;13104;51.030;4.686;2022-08-21T05:26:18;10.13;;;3.67;;
25123;SDS011;13104;51.030;4.686;2022-08-21T05:28:44;14.88;;;3.38;;
25123;SDS011;13104;51.030;4.686;2022-08-21T05:31:11;9.27;;;3.67;;
25123;SDS011;13104;51.030;4.686;2022-08-21T05:33:37;11.43;;;3.40;;
25123;SDS011;13104;51.030;4.686;2022-08-21T05:36:03;8.60;;;3.40;;
25123;SDS011;13104;51.030;4.686;2022-08-21T05:38:29;12.23;;;3.00;;
25123;SDS011;13104;51.030;4.686;2022-08-21T05:40:55;10.90;;;3.22;;
25123;SDS011;13104;51.030;4.686;2022-08-21T05:43:21;11.50;;;3.13;;
25123;SDS011;13104;51.030;4.686;2022-08-21T05:45:47;11.30;;;2.97;;
25123;SDS011;13104;51.030;4.686;2022-08-21T05:48:24;10.38;;;3.20;;
25123;SDS011;13104;51.030;4.686;2022-08-21T05:50:50;7.60;;;2.78;;
25123;SDS011;13104;51.030;4.686;2022-08-21T05:53:17;11.32;;;3.45;;
25123;SDS011;13104;51.030;4.686;2022-08-21T05:55:44;10.43;;;3.47;;
25123;SDS011;13104;51.030;4.686;2022-08-21T05:58:10;11.95;;;3.58;;
25123;SDS011;13104;51.030;4.686;2022-08-21T06:00:36;8.25;;;2.83;;
25123;SDS011;13104;51.030;4.686;2022-08-21T06:03:02;12.60;;;3.25;;
25123;SDS011;13104;51.030;4.686;2022-08-21T06:05:29;8.77;;;3.30;;
25123;SDS011;13104;51.030;4.686;2022-08-21T06:07:55;9.23;;;3.13;;
25123;SDS011;13104;51.030;4.686;2022-08-21T06:10:21;9.90;;;3.30;;
25123;SDS011;13104;51.030;4.686;2022-08-21T06:12:52;14.60;;;3.47;;
25123;SDS011;13104;51.030;4.686;2022-08-21T06:15:19;12.32;;;3.38;;
25123;SDS011;13104;51.030;4.686;2022-08-21T06:17:45;12.13;;;3.00;;
25123;SDS011;13104;51.030;4.686;2022-08-21T06:20:11;11.13;;;2.70;;
25123;SDS011;13104;51.030;4.686;2022-08-21T06:22:37;10.30;;;3.05;;
25123;SDS011;13104;51.030;4.686;2022-08-21T06:25:03;9.80;;;2.53;;
25123;SDS011;13104;51.030;4.686;2022-08-21T06:27:29;8.95;;;2.85;;
25123;SDS011;13104;51.030;4.686;2022-08-21T06:29:55;8.82;;;2.72;;
25123;SDS011;13104;51.030;4.686;2022-08-21T06:32:22;8.20;;;2.75;;
25123;SDS011;13104;51.030;4.686;2022-08-21T06:34:48;13.10;;;3.05;;
25123;SDS011;13104;51.030;4.686;2022-08-21T06:37:14;12.32;;;2.80;;
25123;SDS011;13104;51.030;4.686;2022-08-21T06:39:40;10.00;;;2.65;;
25123;SDS011;13104;51.030;4.686;2022-08-21T06:42:09;11.68;;;2.80;;
25123;SDS011;13104;51.030;4.686;2022-08-21T06:44:38;12.45;;;2.80;;
25123;SDS011;13104;51.030;4.686;2022-08-21T06:47:04;9.32;;;2.97;;
25123;SDS011;13104;51.030;4.686;2022-08-21T06:49:30;12.88;;;3.00;;
25123;SDS011;13104;51.030;4.686;2022-08-21T06:51:56;10.30;;;3.00;;
25123;SDS011;13104;51.030;4.686;2022-08-21T06:54:22;9.85;;;2.83;;
25123;SDS011;13104;51.030;4.686;2022-08-21T06:56:48;10.65;;;2.65;;
25123;SDS011;13104;51.030;4.686;2022-08-21T06:59:14;13.85;;;2.30;;
25123;SDS011;13104;51.030;4.686;2022-08-21T07:01:41;11.70;;;2.65;;
25123;SDS011;13104;51.030;4.686;2022-08-21T07:04:07;11.65;;;2.60;;
25123;SDS011;13104;51.030;4.686;2022-08-21T07:06:33;6.70;;;2.10;;
25123;SDS011;13104;51.030;4.686;2022-08-21T07:08:59;8.77;;;2.55;;
25123;SDS011;13104;51.030;4.686;2022-08-21T07:11:26;9.38;;;2.78;;
25123;SDS011;13104;51.030;4.686;2022-08-21T07:13:52;10.27;;;2.78;;
25123;SDS011;13104;51.030;4.686;2022-08-21T07:16:20;11.25;;;2.83;;
25123;SDS011;13104;51.030;4.686;2022-08-21T07:18:46;11.15;;;2.33;;
25123;SDS011;13104;51.030;4.686;2022-08-21T07:21:13;10.95;;;2.80;;
25123;SDS011;13104;51.030;4.686;2022-08-21T07:23:40;7.03;;;1.92;;
25123;SDS011;13104;51.030;4.686;2022-08-21T07:26:07;11.02;;;2.30;;
25123;SDS011;13104;51.030;4.686;2022-08-21T07:28:33;13.88;;;2.50;;
25123;SDS011;13104;51.030;4.686;2022-08-21T07:31:00;13.55;;;2.38;;
25123;SDS011;13104;51.030;4.686;2022-08-21T07:33:27;13.65;;;2.40;;
25123;SDS011;13104;51.030;4.686;2022-08-21T07:35:53;11.38;;;2.38;;
25123;SDS011;13104;51.030;4.686;2022-08-21T07:38:20;8.48;;;2.85;;
25123;SDS011;13104;51.030;4.686;2022-08-21T07:40:46;13.48;;;2.50;;
25123;SDS011;13104;51.030;4.686;2022-08-21T07:43:12;14.77;;;2.90;;
25123;SDS011;13104;51.030;4.686;2022-08-21T07:45:41;12.30;;;2.10;;
25123;SDS011;13104;51.030;4.686;2022-08-21T07:48:08;7.40;;;2.08;;
25123;SDS011;13104;51.030;4.686;2022-08-21T07:50:34;10.68;;;2.20;;
25123;SDS011;13104;51.030;4.686;2022-08-21T07:53:00;9.80;;;2.10;;
25123;SDS011;13104;51.030;4.686;2022-08-21T07:55:27;9.18;;;1.90;;
25123;SDS011;13104;51.030;4.686;2022-08-21T07:57:53;11.13;;;1.92;;
25123;SDS011;13104;51.030;4.686;2022-08-21T08:00:20;12.60;;;2.25;;
25123;SDS011;13104;51.030;4.686;2022-08-21T08:02:47;14.77;;;2.40;;
25123;SDS011;13104;51.030;4.686;2022-08-21T08:05:17;11.90;;;2.10;;
25123;SDS011;13104;51.030;4.686;2022-08-21T08:07:44;10.77;;;2.22;;
25123;SDS011;13104;51.030;4.686;2022-08-21T08:10:10;15.70;;;1.98;;
25123;SDS011;13104;51.030;4.686;2022-08-21T08:12:37;10.48;;;2.42;;
25123;SDS011;13104;51.030;4.686;2022-08-21T08:15:04;12.23;;;2.13;;
25123;SDS011;13104;51.030;4.686;2022-08-21T08:17:31;12.05;;;2.58;;
25123;SDS011;13104;51.030;4.686;2022-08-21T08:19:57;8.57;;;2.00;;
25123;SDS011;13104;51.030;4.686;2022-08-21T08:22:25;12.20;;;2.58;;
25123;SDS011;13104;51.030;4.686;2022-08-21T08:24:52;12.55;;;2.30;;
25123;SDS011;13104;51.030;4.686;2022-08-21T08:27:19;10.45;;;2.10;;
25123;SDS011;13104;51.030;4.686;2022-08-21T08:29:45;13.85;;;1.98;;
25123;SDS011;13104;51.030;4.686;2022-08-21T08:32:11;9.35;;;1.75;;
25123;SDS011;13104;51.030;4.686;2022-08-21T08:34:38;11.00;;;2.00;;
25123;SDS011;13104;51.030;4.686;2022-08-21T08:37:05;12.98;;;1.95;;
25123;SDS011;13104;51.030;4.686;2022-08-21T08:39:31;8.80;;;1.80;;
25123;SDS011;13104;51.030;4.686;2022-08-21T08:42:08;12.88;;;2.22;;
25123;SDS011;13104;51.030;4.686;2022-08-21T08:44:35;9.05;;;1.63;;
25123;SDS011;13104;51.030;4.686;2022-08-21T08:47:02;10.75;;;2.00;;
25123;SDS011;13104;51.030;4.686;2022-08-21T08:51:57;10.07;;;2.00;;
25123;SDS011;13104;51.030;4.686;2022-08-21T08:56:57;12.55;;;1.95;;
25123;SDS011;13104;51.030;4.686;2022-08-21T08:59:27;8.50;;;1.67;;
25123;SDS011;13104;51.030;4.686;2022-08-21T09:01:56;5.05;;;1.60;;
25123;SDS011;13104;51.030;4.686;2022-08-21T09:04:23;6.40;;;1.50;;
25123;SDS011;13104;51.030;4.686;2022-08-21T09:19:59;7.00;;;1.42;;
25123;SDS011;13104;51.030;4.686;2022-08-21T09:25:10;8.20;;;1.40;;
25123;SDS011;13104;51.030;4.686;2022-08-21T09:27:36;5.53;;;1.52;;
25123;SDS011;13104;51.030;4.686;2022-08-21T09:30:03;7.20;;;1.83;;
25123;SDS011;13104;51.030;4.686;2022-08-21T09:32:31;8.63;;;1.67;;
25123;SDS011;13104;51.030;4.686;2022-08-21T09:35:00;7.35;;;1.27;;
25123;SDS011;13104;51.030;4.686;2022-08-21T09:37:27;7.97;;;1.67;;
25123;SDS011;13104;51.030;4.686;2022-08-21T09:39:54;10.98;;;1.90;;
25123;SDS011;13104;51.030;4.686;2022-08-21T09:42:26;9.55;;;1.73;;
25123;SDS011;13104;51.030;4.686;2022-08-21T09:45:07;9.40;;;1.63;;
25123;SDS011;13104;51.030;4.686;2022-08-21T09:47:34;7.05;;;1.63;;
25123;SDS011;13104;51.030;4.686;2022-08-21T09:50:11;7.43;;;1.85;;
25123;SDS011;13104;51.030;4.686;2022-08-21T09:52:42;9.15;;;1.88;;
25123;SDS011;13104;51.030;4.686;2022-08-21T09:55:13;10.48;;;2.10;;
25123;SDS011;13104;51.030;4.686;2022-08-21T09:58:01;11.18;;;1.90;;
25123;SDS011;13104;51.030;4.686;2022-08-21T10:00:28;10.85;;;1.58;;
25123;SDS011;13104;51.030;4.686;2022-08-21T10:03:17;6.65;;;1.83;;
25123;SDS011;13104;51.030;4.686;2022-08-21T10:05:50;10.45;;;1.63;;
25123;SDS011;13104;51.030;4.686;2022-08-21T10:08:17;7.90;;;1.60;;
25123;SDS011;13104;51.030;4.686;2022-08-21T10:10:43;11.00;;;1.90;;
25123;SDS011;13104;51.030;4.686;2022-08-21T10:25:59;11.45;;;1.80;;
25123;SDS011;13104;51.030;4.686;2022-08-21T10:28:32;8.65;;;1.70;;
25123;SDS011;13104;51.030;4.686;2022-08-21T10:31:10;9.95;;;1.65;;
25123;SDS011;13104;51.030;4.686;2022-08-21T10:36:33;9.75;;;2.30;;
25123;SDS011;13104;51.030;4.686;2022-08-21T10:46:46;9.65;;;2.05;;
25123;SDS011;13104;51.030;4.686;2022-08-21T10:55:00;12.18;;;2.03;;
25123;SDS011;13104;51.030;4.686;2022-08-21T11:00:23;9.27;;;1.98;;
25123;SDS011;13104;51.030;4.686;2022-08-21T11:05:20;11.35;;;2.50;;
25123;SDS011;13104;51.030;4.686;2022-08-21T11:07:51;9.20;;;2.10;;
25123;SDS011;13104;51.030;4.686;2022-08-21T11:10:21;11.90;;;2.40;;
25123;SDS011;13104;51.030;4.686;2022-08-21T11:12:50;7.95;;;1.70;;
25123;SDS011;13104;51.030;4.686;2022-08-21T11:15:39;9.23;;;2.10;;
25123;SDS011;13104;51.030;4.686;2022-08-21T11:18:15;9.40;;;1.83;;
25123;SDS011;13104;51.030;4.686;2022-08-21T11:23:28;6.55;;;1.52;;
25123;SDS011;13104;51.030;4.686;2022-08-21T11:25:58;7.40;;;1.70;;
25123;SDS011;13104;51.030;4.686;2022-08-21T11:28:28;9.25;;;2.05;;
25123;SDS011;13104;51.030;4.686;2022-08-21T11:36:40;9.63;;;1.92;;
25123;SDS011;13104;51.030;4.686;2022-08-21T11:38:50;11.15;;;2.00;;
25123;SDS011;13104;51.030;4.686;2022-08-21T11:44:04;10.05;;;2.08;;
25123;SDS011;13104;51.030;4.686;2022-08-21T11:51:42;7.85;;;1.90;;
25123;SDS011;13104;51.030;4.686;2022-08-21T11:54:16;9.13;;;2.00;;
25123;SDS011;13104;51.030;4.686;2022-08-21T11:56:46;10.70;;;1.98;;
25123;SDS011;13104;51.030;4.686;2022-08-21T11:59:19;11.05;;;1.90;;
25123;SDS011;13104;51.030;4.686;2022-08-21T12:01:46;14.25;;;1.95;;
25123;SDS011;13104;51.030;4.686;2022-08-21T12:04:22;11.10;;;2.35;;
25123;SDS011;13104;51.030;4.686;2022-08-21T12:06:50;8.50;;;1.67;;
25123;SDS011;13104;51.030;4.686;2022-08-21T12:09:31;9.25;;;1.85;;
25123;SDS011;13104;51.030;4.686;2022-08-21T12:12:40;10.77;;;2.10;;
25123;SDS011;13104;51.030;4.686;2022-08-21T12:14:47;13.00;;;2.00;;
25123;SDS011;13104;51.030;4.686;2022-08-21T12:17:24;9.40;;;2.38;;
25123;SDS011;13104;51.030;4.686;2022-08-21T12:20:01;12.15;;;2.30;;
25123;SDS011;13104;51.030;4.686;2022-08-21T12:22:38;9.35;;;1.98;;
25123;SDS011;13104;51.030;4.686;2022-08-21T12:25:10;9.93;;;2.10;;
25123;SDS011;13104;51.030;4.686;2022-08-21T12:27:49;9.88;;;2.03;;
25123;SDS011;13104;51.030;4.686;2022-08-21T12:30:36;8.80;;;1.90;;
25123;SDS011;13104;51.030;4.686;2022-08-21T12:33:49;9.73;;;2.17;;
25123;SDS011;13104;51.030;4.686;2022-08-21T12:35:53;7.68;;;2.05;;
25123;SDS011;13104;51.030;4.686;2022-08-21T12:38:28;11.13;;;2.03;;
25123;SDS011;13104;51.030;4.686;2022-08-21T12:41:04;10.00;;;1.85;;
25123;SDS011;13104;51.030;4.686;2022-08-21T12:43:35;10.50;;;2.17;;
25123;SDS011;13104;51.030;4.686;2022-08-21T12:46:03;7.68;;;1.90;;
25123;SDS011;13104;51.030;4.686;2022-08-21T12:48:33;10.32;;;2.20;;
25123;SDS011;13104;51.030;4.686;2022-08-21T12:51:10;8.50;;;1.85;;
25123;SDS011;13104;51.030;4.686;2022-08-21T12:56:09;10.38;;;2.20;;
25123;SDS011;13104;51.030;4.686;2022-08-21T12:58:36;9.70;;;1.90;;
25123;SDS011;13104;51.030;4.686;2022-08-21T13:01:06;10.75;;;2.03;;
25123;SDS011;13104;51.030;4.686;2022-08-21T13:03:36;6.28;;;1.90;;
25123;SDS011;13104;51.030;4.686;2022-08-21T13:06:03;12.20;;;1.95;;
25123;SDS011;13104;51.030;4.686;2022-08-21T13:08:30;5.82;;;1.92;;
25123;SDS011;13104;51.030;4.686;2022-08-21T13:11:00;9.45;;;1.88;;
25123;SDS011;13104;51.030;4.686;2022-08-21T13:13:27;8.43;;;2.08;;
25123;SDS011;13104;51.030;4.686;2022-08-21T13:16:04;11.43;;;2.00;;
25123;SDS011;13104;51.030;4.686;2022-08-21T13:18:33;10.73;;;2.15;;
25123;SDS011;13104;51.030;4.686;2022-08-21T13:21:34;8.50;;;1.90;;
25123;SDS011;13104;51.030;4.686;2022-08-21T13:23:51;9.18;;;1.92;;
25123;SDS011;13104;51.030;4.686;2022-08-21T13:26:21;11.40;;;2.25;;
25123;SDS011;13104;51.030;4.686;2022-08-21T13:28:48;8.50;;;2.33;;
25123;SDS011;13104;51.030;4.686;2022-08-21T13:31:17;10.60;;;2.30;;
25123;SDS011;13104;51.030;4.686;2022-08-21T13:33:44;14.70;;;2.35;;
25123;SDS011;13104;51.030;4.686;2022-08-21T13:36:14;9.52;;;1.95;;
25123;SDS011;13104;51.030;4.686;2022-08-21T13:38:43;10.32;;;2.15;;
25123;SDS011;13104;51.030;4.686;2022-08-21T13:43:46;9.68;;;2.28;;
25123;SDS011;13104;51.030;4.686;2022-08-21T13:46:12;10.07;;;2.20;;
25123;SDS011;13104;51.030;4.686;2022-08-21T13:48:39;9.43;;;2.28;;
25123;SDS011;13104;51.030;4.686;2022-08-21T13:51:06;5.97;;;1.95;;
25123;SDS011;13104;51.030;4.686;2022-08-21T13:53:33;10.02;;;2.35;;
25123;SDS011;13104;51.030;4.686;2022-08-21T13:56:00;11.23;;;2.35;;
25123;SDS011;13104;51.030;4.686;2022-08-21T13:58:27;10.57;;;2.00;;
25123;SDS011;13104;51.030;4.686;2022-08-21T14:00:54;6.50;;;1.80;;
25123;SDS011;13104;51.030;4.686;2022-08-21T14:03:31;12.07;;;2.05;;
25123;SDS011;13104;51.030;4.686;2022-08-21T14:05:58;5.18;;;1.67;;
25123;SDS011;13104;51.030;4.686;2022-08-21T14:08:27;8.00;;;1.95;;
25123;SDS011;13104;51.030;4.686;2022-08-21T14:10:54;10.90;;;2.10;;
25123;SDS011;13104;51.030;4.686;2022-08-21T14:15:47;7.32;;;1.85;;
25123;SDS011;13104;51.030;4.686;2022-08-21T14:18:20;10.23;;;1.92;;
25123;SDS011;13104;51.030;4.686;2022-08-21T14:20:46;9.93;;;2.38;;
25123;SDS011;13104;51.030;4.686;2022-08-21T14:23:12;9.75;;;1.83;;
25123;SDS011;13104;51.030;4.686;2022-08-21T14:25:49;7.22;;;1.80;;
25123;SDS011;13104;51.030;4.686;2022-08-21T14:28:26;12.35;;;2.17;;
25123;SDS011;13104;51.030;4.686;2022-08-21T14:30:53;8.35;;;2.13;;
25123;SDS011;13104;51.030;4.686;2022-08-21T14:33:30;12.55;;;2.20;;
25123;SDS011;13104;51.030;4.686;2022-08-21T14:35:57;7.05;;;2.22;;
25123;SDS011;13104;51.030;4.686;2022-08-21T14:38:24;10.45;;;2.03;;
25123;SDS011;13104;51.030;4.686;2022-08-21T14:40:52;8.55;;;1.70;;
25123;SDS011;13104;51.030;4.686;2022-08-21T14:43:19;8.25;;;2.00;;
25123;SDS011;13104;51.030;4.686;2022-08-21T14:45:45;13.35;;;1.90;;
25123;SDS011;13104;51.030;4.686;2022-08-21T14:48:11;11.10;;;1.95;;
25123;SDS011;13104;51.030;4.686;2022-08-21T14:50:38;8.63;;;2.13;;
25123;SDS011;13104;51.030;4.686;2022-08-21T14:53:04;8.18;;;2.00;;
25123;SDS011;13104;51.030;4.686;2022-08-21T14:55:31;9.57;;;1.85;;
25123;SDS011;13104;51.030;4.686;2022-08-21T14:58:20;10.93;;;2.28;;
25123;SDS011;13104;51.030;4.686;2022-08-21T15:00:48;8.48;;;2.08;;
25123;SDS011;13104;51.030;4.686;2022-08-21T15:03:14;6.38;;;1.70;;
25123;SDS011;13104;51.030;4.686;2022-08-21T15:05:40;10.40;;;1.92;;
25123;SDS011;13104;51.030;4.686;2022-08-21T15:08:06;9.65;;;2.28;;
25123;SDS011;13104;51.030;4.686;2022-08-21T15:10:32;13.13;;;2.22;;
25123;SDS011;13104;51.030;4.686;2022-08-21T15:12:59;9.35;;;2.13;;
25123;SDS011;13104;51.030;4.686;2022-08-21T15:15:25;9.82;;;2.08;;
25123;SDS011;13104;51.030;4.686;2022-08-21T15:17:52;6.47;;;1.98;;
25123;SDS011;13104;51.030;4.686;2022-08-21T15:20:18;7.60;;;1.95;;
25123;SDS011;13104;51.030;4.686;2022-08-21T15:22:44;7.55;;;1.92;;
25123;SDS011;13104;51.030;4.686;2022-08-21T15:25:10;9.82;;;1.88;;
25123;SDS011;13104;51.030;4.686;2022-08-21T15:27:36;8.27;;;1.90;;
25123;SDS011;13104;51.030;4.686;2022-08-21T15:30:03;7.65;;;1.83;;
25123;SDS011;13104;51.030;4.686;2022-08-21T15:32:29;9.23;;;2.13;;
25123;SDS011;13104;51.030;4.686;2022-08-21T15:34:56;11.48;;;2.13;;
25123;SDS011;13104;51.030;4.686;2022-08-21T15:37:23;14.05;;;2.03;;
25123;SDS011;13104;51.030;4.686;2022-08-21T15:39:50;9.82;;;2.15;;
25123;SDS011;13104;51.030;4.686;2022-08-21T15:42:17;10.90;;;2.13;;
25123;SDS011;13104;51.030;4.686;2022-08-21T15:44:43;13.45;;;1.90;;
25123;SDS011;13104;51.030;4.686;2022-08-21T15:47:18;6.43;;;1.98;;
25123;SDS011;13104;51.030;4.686;2022-08-21T15:49:44;7.90;;;1.95;;
25123;SDS011;13104;51.030;4.686;2022-08-21T15:52:15;9.88;;;1.92;;
25123;SDS011;13104;51.030;4.686;2022-08-21T15:54:41;7.40;;;1.58;;
25123;SDS011;13104;51.030;4.686;2022-08-21T15:57:09;8.00;;;2.17;;
25123;SDS011;13104;51.030;4.686;2022-08-21T15:59:39;7.13;;;1.80;;
25123;SDS011;13104;51.030;4.686;2022-08-21T16:02:08;8.52;;;1.77;;
25123;SDS011;13104;51.030;4.686;2022-08-21T16:04:38;6.95;;;1.80;;